Terminal Aerodrome Forecast
Issued by NWS

Current Version | Previous Version | Text Only | Print | Product List | Glossary On
Versions: 1 2 3 4 5 6 7 8 9 10 11 12
542
FTUS45 KABQ 242331
TAFAEG
TAF
KAEG 242331Z 2500/2524 28022G31KT P6SM FEW080
     FM250100 31012G20KT P6SM SKC
     FM250300 31010KT P6SM SKC
     FM251700 26010KT P6SM SKC=

USA.gov is the U.S. government's official web portal to all federal, state and local government web resources and services.